Time;durP1;ratioP1;P1;durP2;ratioP2;P2;SDS_P1;SDS_P2;PMS_P1;PMS_P2;Temp;Humidity;BMP_temperature;BMP_pressure;BME280_temperature;BME280_humidity;BME280_pressure;Samples;Min_cycle;Max_cycle;Signal;HPM_P1;HPM_P2
2021/09/05 00:01:29;;;;;;;0.70;0.60;;;20.10;58.30;;;;;;5064046;28;20218;-34
2021/09/05 00:04:01;;;;;;;0.70;0.70;;;20.10;58.70;;;;;;5063974;28;20058;-35
2021/09/05 00:06:28;;;;;;;0.90;0.80;;;20.10;58.40;;;;;;5063753;28;20047;-35
2021/09/05 00:08:54;;;;;;;0.95;0.70;;;20.10;58.40;;;;;;5069402;28;20028;-35
2021/09/05 00:11:20;;;;;;;0.73;0.70;;;20.10;58.30;;;;;;5084112;28;20036;-35
2021/09/05 00:13:47;;;;;;;0.70;0.70;;;20.00;58.30;;;;;;5077372;28;20648;-35
2021/09/05 00:16:13;;;;;;;0.80;0.60;;;20.00;58.20;;;;;;5063804;28;20043;-35
2021/09/05 00:18:39;;;;;;;0.65;0.65;;;20.00;58.60;;;;;;5063869;28;20021;-35
2021/09/05 00:21:05;;;;;;;0.50;0.50;;;20.00;58.50;;;;;;5065619;28;20109;-35
2021/09/05 00:23:31;;;;;;;0.52;0.52;;;20.00;59.50;;;;;;5063515;28;20028;-35
2021/09/05 00:25:57;;;;;;;0.68;0.68;;;20.00;59.40;;;;;;5063396;28;20657;-35
2021/09/05 00:28:23;;;;;;;0.70;0.68;;;20.00;59.40;;;;;;5063291;28;20029;-35
2021/09/05 00:30:50;;;;;;;1.00;0.90;;;20.00;59.20;;;;;;5063669;28;20722;-35
2021/09/05 00:33:16;;;;;;;0.98;0.73;;;20.00;59.30;;;;;;5045542;28;20089;-35
2021/09/05 00:35:42;;;;;;;1.50;0.82;;;20.00;59.60;;;;;;5063376;28;20047;-35
2021/09/05 00:38:08;;;;;;;0.75;0.73;;;20.10;59.60;;;;;;5063324;28;20029;-35
2021/09/05 00:40:34;;;;;;;1.23;1.00;;;20.10;59.60;;;;;;5082065;28;20557;-35
2021/09/05 00:43:00;;;;;;;1.10;0.80;;;20.10;59.70;;;;;;5083350;28;20036;-35
2021/09/05 00:45:27;;;;;;;0.85;0.70;;;20.10;60.00;;;;;;5063327;28;20067;-35
2021/09/05 00:47:53;;;;;;;0.80;0.75;;;20.20;60.20;;;;;;5063298;28;20429;-35
2021/09/05 00:50:19;;;;;;;0.80;0.70;;;20.20;60.10;;;;;;5063304;28;20029;-35
2021/09/05 00:52:45;;;;;;;0.70;0.70;;;20.20;60.20;;;;;;5063043;28;20021;-35
2021/09/05 00:55:11;;;;;;;0.80;0.80;;;20.20;60.30;;;;;;5044721;28;20053;-35
2021/09/05 00:57:38;;;;;;;1.55;0.80;;;20.20;60.40;;;;;;5062407;28;20056;-35
2021/09/05 01:00:07;;;;;;;1.10;0.80;;;20.20;60.50;;;;;;5045608;28;20151;-35
2021/09/05 01:02:34;;;;;;;0.90;0.88;;;20.20;61.30;;;;;;5063138;28;20040;-35
2021/09/05 01:05:00;;;;;;;1.15;0.80;;;20.30;60.80;;;;;;5062570;28;20033;-35
2021/09/05 01:07:26;;;;;;;1.58;0.80;;;20.30;60.90;;;;;;5062855;28;20083;-35
2021/09/05 01:09:52;;;;;;;0.77;0.77;;;20.30;61.00;;;;;;5028318;28;20470;-35
2021/09/05 01:12:18;;;;;;;1.00;0.90;;;20.30;61.20;;;;;;5062692;28;20029;-36
2021/09/05 01:14:44;;;;;;;0.85;0.70;;;20.30;61.10;;;;;;5062471;28;20025;-35
2021/09/05 01:17:12;;;;;;;1.08;0.98;;;20.30;61.20;;;;;;5062719;28;20025;-35
2021/09/05 01:19:38;;;;;;;0.85;0.80;;;20.40;61.30;;;;;;5060577;28;20100;-35
2021/09/05 01:22:04;;;;;;;1.10;1.00;;;20.40;61.30;;;;;;5062555;28;20033;-35
2021/09/05 01:24:30;;;;;;;1.13;0.98;;;20.40;61.40;;;;;;5062336;28;20029;-35
2021/09/05 01:26:57;;;;;;;1.10;1.00;;;20.40;61.50;;;;;;5062636;28;20032;-35
2021/09/05 01:29:24;;;;;;;1.23;1.00;;;20.40;61.60;;;;;;5044855;28;20031;-35
2021/09/05 01:31:54;;;;;;;1.10;1.00;;;20.40;61.80;;;;;;5062512;28;20040;-35
2021/09/05 01:34:21;;;;;;;1.10;0.93;;;20.50;61.90;;;;;;5062263;28;20033;-35
2021/09/05 01:36:48;;;;;;;1.23;1.08;;;20.50;62.70;;;;;;5062450;28;20058;-35
2021/09/05 01:39:15;;;;;;;1.48;1.10;;;20.50;62.00;;;;;;5054445;28;20052;-35
2021/09/05 01:41:42;;;;;;;1.40;1.20;;;20.50;62.10;;;;;;5042485;28;20026;-35
2021/09/05 01:44:10;;;;;;;1.50;1.20;;;20.50;62.20;;;;;;5051510;28;20041;-35
2021/09/05 01:46:37;;;;;;;1.60;1.10;;;20.50;62.30;;;;;;5062001;28;20044;-35
2021/09/05 01:49:03;;;;;;;1.23;1.05;;;20.50;62.30;;;;;;5062458;28;20037;-35
2021/09/05 01:51:29;;;;;;;1.95;1.20;;;20.60;62.50;;;;;;5062358;28;20394;-35
2021/09/05 01:53:57;;;;;;;1.55;1.10;;;20.60;62.30;;;;;;5044178;28;20056;-35
2021/09/05 01:56:24;;;;;;;1.10;0.90;;;20.60;62.20;;;;;;5061097;28;20060;-35
2021/09/05 01:58:50;;;;;;;1.15;0.90;;;20.60;62.00;;;;;;5062399;28;20033;-35
2021/09/05 02:01:17;;;;;;;1.58;1.20;;;20.60;61.90;;;;;;5062328;28;20033;-35
2021/09/05 02:03:43;;;;;;;1.35;1.08;;;20.60;62.00;;;;;;5062308;28;20024;-35
2021/09/05 02:06:09;;;;;;;1.73;1.10;;;20.60;62.00;;;;;;5062045;28;20041;-35
2021/09/05 02:08:35;;;;;;;1.60;1.05;;;20.60;62.30;;;;;;5064305;28;20037;-35
2021/09/05 02:11:01;;;;;;;1.65;1.15;;;20.70;62.80;;;;;;5066090;28;20032;-35
2021/09/05 02:13:27;;;;;;;1.90;1.40;;;20.70;62.90;;;;;;5066187;28;20028;-35
2021/09/05 02:15:54;;;;;;;1.75;1.30;;;20.70;63.00;;;;;;5066159;28;20037;-35
2021/09/05 02:18:20;;;;;;;1.77;1.30;;;20.70;63.10;;;;;;5066260;28;20048;-35
2021/09/05 02:20:46;;;;;;;1.83;1.23;;;20.70;63.10;;;;;;5066153;28;20028;-35
2021/09/05 02:23:12;;;;;;;1.58;1.30;;;20.70;63.00;;;;;;5066143;28;20025;-35
2021/09/05 02:25:38;;;;;;;2.35;1.60;;;20.70;63.20;;;;;;5057215;28;20033;-35
2021/09/05 02:28:05;;;;;;;2.70;1.90;;;20.70;63.20;;;;;;5051232;28;20025;-35
2021/09/05 02:30:31;;;;;;;1.70;1.40;;;20.70;63.20;;;;;;5065943;28;20033;-35
2021/09/05 02:32:57;;;;;;;1.45;1.35;;;20.70;63.00;;;;;;5066197;28;20047;-35
2021/09/05 02:35:23;;;;;;;1.75;1.50;;;20.70;62.70;;;;;;5065530;28;20112;-35
2021/09/05 02:37:49;;;;;;;1.48;1.38;;;20.70;62.60;;;;;;5065722;28;20029;-35
2021/09/05 02:40:15;;;;;;;1.70;1.50;;;20.70;62.60;;;;;;5065827;28;20116;-35
2021/09/05 02:42:42;;;;;;;1.88;1.40;;;20.80;62.80;;;;;;5065742;28;20033;-35
2021/09/05 02:45:08;;;;;;;2.22;1.45;;;20.80;62.80;;;;;;5048451;28;20136;-35
2021/09/05 02:47:34;;;;;;;1.30;1.20;;;20.80;63.00;;;;;;5045322;28;20033;-35
2021/09/05 02:50:01;;;;;;;3.53;1.88;;;20.80;63.10;;;;;;5045614;28;20034;-35
2021/09/05 02:52:27;;;;;;;2.22;1.80;;;20.80;63.30;;;;;;5045614;28;20036;-35
2021/09/05 02:54:53;;;;;;;2.15;1.83;;;20.80;63.40;;;;;;5051235;28;20025;-35
2021/09/05 02:57:19;;;;;;;2.08;1.77;;;20.80;63.70;;;;;;5065300;28;20033;-35
2021/09/05 02:59:45;;;;;;;1.92;1.70;;;20.80;63.80;;;;;;5065694;28;20028;-35
2021/09/05 03:02:11;;;;;;;2.15;1.80;;;20.80;63.90;;;;;;5065269;28;20143;-35
2021/09/05 03:04:37;;;;;;;2.25;1.80;;;20.80;63.90;;;;;;5065310;28;20037;-35
2021/09/05 03:07:04;;;;;;;2.47;2.20;;;20.80;64.00;;;;;;5064931;28;20033;-35
2021/09/05 03:09:30;;;;;;;2.53;1.88;;;20.80;64.10;;;;;;5047305;28;20083;-35
2021/09/05 03:11:56;;;;;;;1.73;1.60;;;20.80;63.90;;;;;;5065122;28;20091;-35
2021/09/05 03:14:22;;;;;;;1.75;1.63;;;20.80;63.60;;;;;;5054266;28;20022;-35
2021/09/05 03:16:48;;;;;;;2.17;1.70;;;20.80;63.50;;;;;;5044942;28;20200;-35
2021/09/05 03:19:15;;;;;;;3.15;2.38;;;20.80;63.90;;;;;;5045113;28;20049;-35
2021/09/05 03:21:41;;;;;;;2.55;2.20;;;20.80;64.50;;;;;;5045140;28;20025;-35
2021/09/05 03:24:07;;;;;;;4.10;2.40;;;20.80;64.90;;;;;;5044978;28;21963;-35
2021/09/05 03:26:34;;;;;;;3.38;2.20;;;20.90;65.20;;;;;;5064608;28;20028;-35
2021/09/05 03:29:03;;;;;;;1.92;1.55;;;20.80;65.70;;;;;;5064974;28;20048;-35
2021/09/05 03:31:29;;;;;;;2.40;2.20;;;20.90;64.80;;;;;;5064823;28;20062;-35
2021/09/05 03:33:55;;;;;;;2.80;2.40;;;20.90;64.80;;;;;;5065014;28;20017;-35
2021/09/05 03:36:21;;;;;;;2.28;2.00;;;20.90;64.80;;;;;;5064387;28;20092;-35
2021/09/05 03:38:47;;;;;;;3.20;2.15;;;20.90;64.80;;;;;;5046993;28;20040;-35
2021/09/05 03:41:14;;;;;;;3.08;2.10;;;20.90;64.60;;;;;;5064389;28;20086;-35
2021/09/05 03:43:40;;;;;;;3.92;2.30;;;20.90;64.50;;;;;;5059545;28;20036;-35
2021/09/05 03:46:06;;;;;;;2.33;1.90;;;20.90;64.60;;;;;;5044316;28;20041;-34
2021/09/05 03:48:32;;;;;;;3.03;2.17;;;20.90;64.40;;;;;;5044604;28;20093;-35
2021/09/05 03:50:59;;;;;;;3.27;2.27;;;20.90;64.20;;;;;;5044546;28;20643;-35
2021/09/05 03:53:26;;;;;;;3.03;2.72;;;20.90;64.60;;;;;;5044705;28;20025;-35
2021/09/05 03:55:53;;;;;;;2.60;2.10;;;20.90;64.60;;;;;;5058390;28;20156;-35
2021/09/05 03:58:19;;;;;;;2.85;2.30;;;20.80;64.70;;;;;;5064147;28;20041;-35
2021/09/05 04:00:45;;;;;;;3.22;2.33;;;20.90;64.80;;;;;;5064266;28;20029;-35
2021/09/05 04:03:12;;;;;;;3.55;2.25;;;20.90;64.50;;;;;;5064451;28;20037;-35
2021/09/05 04:05:38;;;;;;;2.85;2.28;;;20.90;64.60;;;;;;5064001;28;20037;-36
2021/09/05 04:10:34;;;;;;;3.20;2.37;;;20.90;64.90;;;;;;5064201;28;20021;-35
2021/09/05 04:13:00;;;;;;;2.25;2.05;;;20.90;64.90;;;;;;5064115;28;20017;-35
2021/09/05 04:15:26;;;;;;;2.72;2.03;;;20.90;65.20;;;;;;5064137;28;20025;-35
2021/09/05 04:17:53;;;;;;;2.30;2.10;;;20.90;64.80;;;;;;5063778;28;20055;-35
2021/09/05 04:20:19;;;;;;;2.87;2.30;;;20.90;64.50;;;;;;5051224;28;20025;-35
2021/09/05 04:22:45;;;;;;;3.70;2.50;;;20.90;64.60;;;;;;5044011;28;20025;-35
2021/09/05 04:25:12;;;;;;;2.30;2.10;;;20.90;64.60;;;;;;5052152;28;20044;-35
2021/09/05 04:27:38;;;;;;;2.97;2.30;;;20.90;64.50;;;;;;5063531;28;20033;-36
2021/09/05 04:30:05;;;;;;;2.38;1.98;;;20.90;64.10;;;;;;5061497;28;20124;-35
2021/09/05 04:32:31;;;;;;;;;;;20.90;63.90;;;;;;5064006;28;20025;-35
2021/09/05 04:34:58;;;;;;;2.25;2.00;;;20.80;63.80;;;;;;5055605;28;19916;-36
2021/09/05 04:37:24;;;;;;;2.05;1.83;;;20.80;63.60;;;;;;5056747;28;20029;-35
2021/09/05 04:39:50;;;;;;;2.60;2.08;;;20.90;63.50;;;;;;5062731;28;20018;-35
2021/09/05 04:42:16;;;;;;;2.08;1.88;;;20.80;63.40;;;;;;5063080;28;20040;-36
2021/09/05 04:44:42;;;;;;;2.65;1.85;;;20.80;63.30;;;;;;5060094;28;20029;-35
2021/09/05 04:47:09;;;;;;;2.92;1.95;;;20.80;63.30;;;;;;5062863;28;20035;-35
2021/09/05 04:49:35;;;;;;;2.72;2.25;;;20.80;63.30;;;;;;5063004;28;20025;-35
2021/09/05 04:52:01;;;;;;;2.22;1.95;;;20.80;63.30;;;;;;5060219;28;20432;-35
2021/09/05 04:54:28;;;;;;;2.63;2.10;;;20.80;63.30;;;;;;5057541;28;20029;-35
2021/09/05 04:56:54;;;;;;;2.47;2.20;;;20.80;63.30;;;;;;5060667;28;20139;-35
2021/09/05 04:59:20;;;;;;;2.58;2.33;;;20.80;63.30;;;;;;5048337;28;20027;-34
2021/09/05 05:01:46;;;;;;;2.80;2.40;;;20.80;63.20;;;;;;5053883;28;20037;-35
2021/09/05 05:04:12;;;;;;;3.45;2.15;;;20.80;63.30;;;;;;5055352;28;20037;-35
2021/09/05 05:06:40;;;;;;;2.30;2.10;;;20.80;63.30;;;;;;5062845;28;20462;-35
2021/09/05 05:09:06;;;;;;;;;;;20.80;63.30;;;;;;5047039;28;20025;-35
2021/09/05 05:11:32;;;;;;;2.30;2.08;;;20.80;63.30;;;;;;5054792;28;19913;-36
2021/09/05 05:13:58;;;;;;;2.25;2.05;;;20.80;63.40;;;;;;5032060;28;20113;-35
2021/09/05 05:16:25;;;;;;;2.30;2.10;;;20.80;63.40;;;;;;5062806;28;20033;-36
2021/09/05 05:18:52;;;;;;;3.17;2.42;;;20.80;63.40;;;;;;5061898;28;20028;-35
2021/09/05 05:21:18;;;;;;;3.40;2.05;;;20.80;63.50;;;;;;5044587;28;20028;-35
2021/09/05 05:23:44;;;;;;;2.33;2.13;;;20.80;63.50;;;;;;5062354;28;20037;-35
2021/09/05 05:26:10;;;;;;;2.55;2.20;;;20.80;63.50;;;;;;5061802;28;20033;-35
2021/09/05 05:28:36;;;;;;;2.80;2.17;;;20.70;63.50;;;;;;5061496;28;20029;-35
2021/09/05 05:31:03;;;;;;;2.65;2.28;;;20.80;63.60;;;;;;5061026;28;20037;-35
2021/09/05 05:33:29;;;;;;;3.03;2.15;;;20.70;63.60;;;;;;5061383;28;20036;-35
2021/09/05 05:35:55;;;;;;;2.90;2.42;;;20.70;63.60;;;;;;5048317;28;20041;-35
2021/09/05 05:38:23;;;;;;;2.63;2.30;;;20.70;63.60;;;;;;5061639;28;20031;-35
2021/09/05 05:40:49;;;;;;;2.20;1.90;;;20.70;63.70;;;;;;5061781;28;20029;-36
2021/09/05 05:43:16;;;;;;;2.28;2.08;;;20.70;63.70;;;;;;5061128;28;20052;-35
2021/09/05 05:45:44;;;;;;;3.20;2.15;;;20.70;63.70;;;;;;5061616;28;20048;-35
2021/09/05 05:48:11;;;;;;;3.10;2.38;;;20.70;63.80;;;;;;5061744;28;20165;-35
2021/09/05 05:50:37;;;;;;;3.13;2.38;;;20.70;63.80;;;;;;5061239;28;20116;-35
2021/09/05 05:53:03;;;;;;;3.70;2.20;;;20.70;63.80;;;;;;5062122;28;20666;-35
2021/09/05 05:55:29;;;;;;;2.28;2.08;;;20.70;63.90;;;;;;5061698;28;20040;-36
2021/09/05 05:57:55;;;;;;;3.13;2.40;;;20.70;63.90;;;;;;5062189;28;20033;-35
2021/09/05 06:00:25;;;;;;;3.00;2.30;;;20.70;63.90;;;;;;5054225;28;20070;-35
2021/09/05 06:02:52;;;;;;;2.45;2.25;;;20.70;63.90;;;;;;5061055;28;20033;-35
2021/09/05 06:05:18;;;;;;;2.97;2.65;;;20.70;64.00;;;;;;5061318;28;20037;-35
2021/09/05 06:07:44;;;;;;;3.08;2.38;;;20.70;64.00;;;;;;5061291;28;20040;-35
2021/09/05 06:10:11;;;;;;;3.17;2.47;;;20.70;64.00;;;;;;5060918;28;20029;-35
2021/09/05 06:12:37;;;;;;;2.65;2.45;;;20.70;64.00;;;;;;5061683;28;20083;-36
2021/09/05 06:15:03;;;;;;;2.70;2.40;;;20.70;64.10;;;;;;5057533;28;20482;-35
2021/09/05 06:17:29;;;;;;;3.78;2.50;;;20.70;64.10;;;;;;5061134;28;20041;-35
2021/09/05 06:19:56;;;;;;;3.60;2.40;;;20.70;64.10;;;;;;5059313;28;20028;-36
2021/09/05 06:22:22;;;;;;;2.50;2.30;;;20.70;64.20;;;;;;5061194;28;20025;-35
2021/09/05 06:24:48;;;;;;;3.03;2.60;;;20.70;64.20;;;;;;5061639;28;20045;-35
2021/09/05 06:27:14;;;;;;;2.85;2.20;;;20.70;64.20;;;;;;5043609;28;20032;-35
2021/09/05 06:29:40;;;;;;;2.70;2.50;;;20.70;64.30;;;;;;5055625;28;20036;-35
2021/09/05 06:32:07;;;;;;;2.58;2.38;;;20.70;64.30;;;;;;5061108;28;20021;-35
2021/09/05 06:34:33;;;;;;;2.70;2.50;;;20.70;64.40;;;;;;5061926;28;20036;-35
2021/09/05 06:37:00;;;;;;;3.33;2.80;;;20.70;64.40;;;;;;5061760;28;20405;-35
2021/09/05 06:39:26;;;;;;;2.72;2.33;;;20.70;64.40;;;;;;5060783;28;20032;-35
2021/09/05 06:41:52;;;;;;;3.45;2.60;;;20.70;64.50;;;;;;5061211;28;20032;-36
2021/09/05 06:44:18;;;;;;;3.38;2.40;;;20.70;64.60;;;;;;5051260;28;20472;-35
2021/09/05 06:46:44;;;;;;;2.83;2.30;;;20.60;64.50;;;;;;5041746;28;20038;-35
2021/09/05 06:49:10;;;;;;;2.55;2.08;;;20.70;64.60;;;;;;5055980;28;20135;-35
2021/09/05 06:51:37;;;;;;;2.88;2.58;;;20.60;64.60;;;;;;5055879;28;20033;-35
2021/09/05 06:54:03;;;;;;;3.40;2.72;;;20.70;64.60;;;;;;5060847;28;20109;-35
2021/09/05 06:56:29;;;;;;;3.00;2.50;;;20.60;64.60;;;;;;5049517;28;20061;-35
2021/09/05 06:58:55;;;;;;;2.97;2.42;;;20.60;64.70;;;;;;5063455;28;20029;-35
2021/09/05 07:01:21;;;;;;;3.35;2.45;;;20.60;64.60;;;;;;5065072;28;20041;-35
2021/09/05 07:03:47;;;;;;;3.90;2.50;;;20.60;64.60;;;;;;5055906;28;20200;-35
2021/09/05 07:06:13;;;;;;;2.90;2.55;;;20.60;64.60;;;;;;5059138;28;20044;-35
2021/09/05 07:08:40;;;;;;;3.15;2.33;;;20.60;64.80;;;;;;5066599;28;20597;-35
2021/09/05 07:11:06;;;;;;;2.60;2.40;;;20.60;64.90;;;;;;5064797;28;20132;-36
2021/09/05 07:13:33;;;;;;;2.38;2.17;;;20.60;64.90;;;;;;5060919;28;20713;-36
2021/09/05 07:15:59;;;;;;;3.15;2.50;;;20.60;65.00;;;;;;5056460;28;20029;-35
2021/09/05 07:18:25;;;;;;;2.97;2.55;;;20.60;65.10;;;;;;5064909;28;20080;-35
2021/09/05 07:20:51;;;;;;;2.33;2.13;;;20.60;65.10;;;;;;5084757;28;20029;-36
2021/09/05 07:23:17;;;;;;;2.53;2.33;;;20.60;65.20;;;;;;5084601;28;20088;-36
2021/09/05 07:25:44;;;;;;;3.15;2.50;;;20.60;65.20;;;;;;5071661;28;20044;-36
2021/09/05 07:28:10;;;;;;;2.67;2.42;;;20.50;65.20;;;;;;5064632;28;20088;-35
2021/09/05 07:30:36;;;;;;;2.80;2.28;;;20.50;65.30;;;;;;5029379;28;20060;-36
2021/09/05 07:33:02;;;;;;;2.80;2.50;;;20.50;65.30;;;;;;5053591;28;20449;-35
2021/09/05 07:35:28;;;;;;;2.72;2.53;;;20.50;65.30;;;;;;5064188;28;20100;-35
2021/09/05 07:37:54;;;;;;;4.47;2.67;;;20.50;65.30;;;;;;5064608;28;20025;-35
2021/09/05 07:40:21;;;;;;;2.80;2.35;;;20.50;65.30;;;;;;5064500;28;20021;-35
2021/09/05 07:42:47;;;;;;;2.88;2.60;;;20.50;65.30;;;;;;5081898;28;20256;-36
2021/09/05 07:45:14;;;;;;;3.55;2.95;;;20.50;65.30;;;;;;5051043;28;20137;-35
2021/09/05 07:47:40;;;;;;;5.85;2.63;;;20.50;65.40;;;;;;5064003;28;20025;-35
2021/09/05 07:50:07;;;;;;;2.67;2.47;;;20.50;65.50;;;;;;5064193;28;20082;-36
2021/09/05 07:52:33;;;;;;;2.97;2.67;;;20.50;65.60;;;;;;5047991;28;20061;-35
2021/09/05 07:55:00;;;;;;;2.85;2.33;;;20.50;65.60;;;;;;5060256;28;20036;-36
2021/09/05 07:57:26;;;;;;;3.17;2.83;;;20.50;65.70;;;;;;5025980;28;20565;-35
2021/09/05 07:59:52;;;;;;;3.28;2.67;;;20.50;65.70;;;;;;5043881;28;20040;-35
2021/09/05 08:02:18;;;;;;;3.42;2.50;;;20.50;65.80;;;;;;5043206;28;20391;-35
2021/09/05 08:04:44;;;;;;;3.60;2.70;;;20.50;65.80;;;;;;5043838;28;20621;-35
2021/09/05 08:07:10;;;;;;;2.50;2.30;;;20.50;65.80;;;;;;5043384;28;20045;-36
2021/09/05 08:09:37;;;;;;;3.75;2.67;;;20.40;65.80;;;;;;5043827;28;20025;-35
2021/09/05 08:12:03;;;;;;;2.70;2.42;;;20.40;65.90;;;;;;5043307;28;20040;-35
2021/09/05 08:14:29;;;;;;;2.57;2.37;;;20.40;65.90;;;;;;5043643;28;20040;-35
2021/09/05 08:16:56;;;;;;;3.33;2.67;;;20.40;65.90;;;;;;5043649;28;20254;-35
2021/09/05 08:19:22;;;;;;;3.50;2.60;;;20.40;66.00;;;;;;5043536;28;20030;-35
2021/09/05 08:21:48;;;;;;;3.55;2.40;;;20.40;65.90;;;;;;5043039;28;20037;-35
2021/09/05 08:24:15;;;;;;;3.45;2.67;;;20.40;66.00;;;;;;5043092;28;20026;-35
2021/09/05 08:26:41;;;;;;;2.90;2.63;;;20.40;66.00;;;;;;5042946;28;20068;-35
2021/09/05 08:29:09;;;;;;;3.50;2.90;;;20.40;66.00;;;;;;5038169;28;20037;-35
2021/09/05 08:31:35;;;;;;;3.13;2.78;;;20.40;66.00;;;;;;5023839;28;20034;-35
2021/09/05 08:34:02;;;;;;;3.63;2.90;;;20.40;66.00;;;;;;5023425;28;20037;-35
2021/09/05 08:36:28;;;;;;;2.83;2.53;;;20.40;66.10;;;;;;5040355;28;20038;-35
2021/09/05 08:38:54;;;;;;;3.17;2.80;;;20.40;66.20;;;;;;5043492;28;20022;-36
2021/09/05 08:41:26;;;;;;;2.97;2.67;;;20.40;66.20;;;;;;5043143;28;20733;-35
2021/09/05 08:43:52;;;;;;;3.95;2.75;;;20.40;66.20;;;;;;5042166;28;20025;-35
2021/09/05 08:46:18;;;;;;;2.88;2.58;;;20.40;66.30;;;;;;5042596;28;20513;-35
2021/09/05 08:48:46;;;;;;;3.13;2.50;;;20.40;66.30;;;;;;5041829;28;20037;-36
2021/09/05 08:51:12;;;;;;;2.88;2.50;;;20.40;66.40;;;;;;5009332;28;20036;-36
2021/09/05 08:53:38;;;;;;;4.53;2.83;;;20.40;66.40;;;;;;5025331;28;20033;-36
2021/09/05 08:56:04;;;;;;;2.88;2.58;;;20.30;66.40;;;;;;5030960;28;20128;-35
2021/09/05 08:58:30;;;;;;;3.03;2.65;;;20.40;66.50;;;;;;5081635;28;20561;-35
2021/09/05 09:00:57;;;;;;;4.47;3.08;;;20.30;66.50;;;;;;5073094;28;20032;-35
2021/09/05 09:03:24;;;;;;;3.58;2.75;;;20.30;66.50;;;;;;5082625;28;20189;-36
2021/09/05 09:05:54;;;;;;;3.70;2.70;;;20.30;66.50;;;;;;5080021;28;20044;-35
2021/09/05 09:08:21;;;;;;;2.80;2.40;;;20.30;66.50;;;;;;5082843;28;20020;-35
2021/09/05 09:10:49;;;;;;;3.03;2.47;;;20.30;66.50;;;;;;5066089;28;20192;-35
2021/09/05 09:13:37;;;;;;;2.67;2.30;;;20.30;66.60;;;;;;5064398;28;20042;-35
2021/09/05 09:16:08;;;;;;;4.37;2.80;;;20.30;66.50;;;;;;5082965;28;20389;-35
2021/09/05 09:18:35;;;;;;;2.97;2.63;;;20.30;66.60;;;;;;5082023;28;20292;-36
2021/09/05 09:21:01;;;;;;;2.80;2.60;;;20.30;66.70;;;;;;5082665;28;20859;-35
2021/09/05 09:23:29;;;;;;;3.88;2.72;;;20.30;66.70;;;;;;5082313;28;20042;-35
2021/09/05 09:26:09;;;;;;;3.00;2.70;;;20.30;66.80;;;;;;5082423;28;20060;-35
2021/09/05 09:28:36;;;;;;;4.65;2.58;;;20.30;66.90;;;;;;5062300;28;20035;-35
2021/09/05 09:31:23;;;;;;;3.15;2.67;;;20.30;66.80;;;;;;5074642;28;20059;-35
2021/09/05 09:33:50;;;;;;;3.55;2.83;;;20.30;66.90;;;;;;5072516;28;20045;-35
2021/09/05 09:36:18;;;;;;;3.72;2.80;;;20.20;66.90;;;;;;5064816;28;20035;-36
2021/09/05 09:39:01;;;;;;;3.40;2.65;;;20.20;66.90;;;;;;5082499;28;20032;-35
2021/09/05 09:41:37;;;;;;;4.32;2.63;;;20.20;67.00;;;;;;5081889;28;20817;-35
2021/09/05 09:44:06;;;;;;;2.80;2.47;;;20.20;66.90;;;;;;5082336;28;20040;-35
2021/09/05 09:46:34;;;;;;;3.17;2.88;;;20.20;67.00;;;;;;5082344;28;20036;-36
2021/09/05 09:49:02;;;;;;;2.67;2.35;;;20.20;67.00;;;;;;5065829;28;20112;-36
2021/09/05 09:51:28;;;;;;;4.18;2.65;;;20.20;67.00;;;;;;5057153;28;20029;-35
2021/09/05 09:53:55;;;;;;;3.07;2.70;;;20.20;67.00;;;;;;5072648;28;20021;-35
2021/09/05 09:56:21;;;;;;;5.97;3.08;;;20.20;67.10;;;;;;5068714;28;20115;-35
2021/09/05 09:58:52;;;;;;;4.47;3.20;;;20.20;67.10;;;;;;5045443;28;20050;-35
2021/09/05 10:01:22;;;;;;;3.53;2.70;;;20.20;67.20;;;;;;5061781;28;20060;-35
2021/09/05 10:03:50;;;;;;;5.63;2.88;;;20.20;67.20;;;;;;5061712;28;20059;-35
2021/09/05 10:06:17;;;;;;;3.33;2.70;;;20.20;67.30;;;;;;5061919;28;20720;-35
2021/09/05 10:08:43;;;;;;;3.27;2.97;;;20.10;67.30;;;;;;5061743;28;20076;-35
2021/09/05 10:11:10;;;;;;;3.22;2.72;;;20.10;67.20;;;;;;5061336;28;20032;-35
2021/09/05 10:13:40;;;;;;;3.13;2.75;;;20.20;67.40;;;;;;5061611;28;20029;-35
2021/09/05 10:16:07;;;;;;;3.70;2.92;;;20.10;67.40;;;;;;5062062;28;20025;-35
2021/09/05 10:18:39;;;;;;;3.97;3.03;;;20.10;67.40;;;;;;5062043;28;20025;-35
2021/09/05 10:21:05;;;;;;;4.45;2.92;;;20.10;67.40;;;;;;5027428;28;20029;-35
2021/09/05 10:23:33;;;;;;;3.35;2.92;;;20.10;67.50;;;;;;5043554;28;20055;-35
2021/09/05 10:26:07;;;;;;;3.22;2.92;;;20.10;67.50;;;;;;5060609;28;20048;-36
2021/09/05 10:28:37;;;;;;;4.25;2.85;;;20.10;67.50;;;;;;5061183;28;20556;-36
2021/09/05 10:31:04;;;;;;;3.03;2.72;;;20.10;67.60;;;;;;5051406;28;20037;-36
2021/09/05 10:33:35;;;;;;;3.80;2.72;;;20.10;67.60;;;;;;5047722;28;20485;-35
2021/09/05 10:36:11;;;;;;;3.50;2.72;;;20.10;67.60;;;;;;5065373;28;20367;-36
2021/09/05 10:38:43;;;;;;;3.28;2.58;;;20.10;67.60;;;;;;5069393;28;20362;-35
2021/09/05 10:41:30;;;;;;;3.00;2.70;;;20.10;67.60;;;;;;5049731;28;20047;-35
2021/09/05 10:44:01;;;;;;;2.92;2.60;;;20.10;67.60;;;;;;5061746;28;20085;-35
2021/09/05 10:46:40;;;;;;;3.90;3.05;;;20.10;67.70;;;;;;5065556;28;20032;-36
2021/09/05 10:49:06;;;;;;;3.00;2.53;;;20.10;67.80;;;;;;5027830;28;20029;-35
2021/09/05 10:51:35;;;;;;;4.17;3.40;;;20.10;67.80;;;;;;5052677;28;20025;-35
2021/09/05 10:54:06;;;;;;;3.15;2.75;;;20.10;67.80;;;;;;5047497;28;20027;-35
2021/09/05 10:56:34;;;;;;;4.30;3.08;;;20.10;67.80;;;;;;5064687;28;20061;-35
2021/09/05 10:59:03;;;;;;;3.15;2.78;;;20.00;67.80;;;;;;5048362;28;20040;-35
2021/09/05 11:01:36;;;;;;;3.22;2.70;;;20.00;67.90;;;;;;5047277;28;20537;-36
2021/09/05 11:04:12;;;;;;;3.63;3.08;;;20.00;68.00;;;;;;5064996;28;20040;-35
2021/09/05 11:06:50;;;;;;;3.45;3.10;;;20.00;68.00;;;;;;5064995;28;20048;-35
2021/09/05 11:12:43;;;;;;;2.83;2.63;;;20.10;68.10;;;;;;5065013;28;20033;-35
2021/09/05 11:15:07;;;;;;;3.38;3.08;;;20.00;68.10;;;;;;5063415;28;20049;-35
2021/09/05 11:17:34;;;;;;;3.30;3.00;;;20.00;68.10;;;;;;5064851;28;20036;-35
2021/09/05 11:20:11;;;;;;;2.97;2.70;;;20.00;68.10;;;;;;5064938;28;20033;-36
2021/09/05 11:22:45;;;;;;;3.20;2.90;;;20.00;68.20;;;;;;5063687;28;20086;-35
2021/09/05 11:25:23;;;;;;;3.47;2.65;;;20.00;68.20;;;;;;5056252;28;20305;-36
2021/09/05 11:27:53;;;;;;;3.80;3.28;;;20.00;68.30;;;;;;5044819;28;20490;-35
2021/09/05 11:30:19;;;;;;;3.08;2.78;;;20.00;68.20;;;;;;5044791;28;20060;-35
2021/09/05 11:32:45;;;;;;;4.40;3.13;;;20.00;68.30;;;;;;5056653;28;20025;-35
2021/09/05 11:35:12;;;;;;;3.30;3.00;;;20.00;68.40;;;;;;5059967;28;20028;-36
2021/09/05 11:37:41;;;;;;;2.95;2.65;;;19.90;68.30;;;;;;5053067;28;20055;-35
2021/09/05 11:40:14;;;;;;;3.47;2.88;;;19.90;68.30;;;;;;5063952;28;20033;-35
2021/09/05 11:42:58;;;;;;;3.60;3.15;;;19.90;68.40;;;;;;5047822;28;20159;-36
2021/09/05 11:45:25;;;;;;;4.03;2.92;;;20.00;68.50;;;;;;5064232;28;20065;-35
2021/09/05 11:48:02;;;;;;;3.13;2.80;;;19.90;68.50;;;;;;5063851;28;20033;-35
2021/09/05 11:50:28;;;;;;;4.50;3.05;;;19.90;68.50;;;;;;5064133;28;20041;-35
2021/09/05 11:52:55;;;;;;;3.30;2.97;;;19.90;68.60;;;;;;5064073;28;20040;-36
2021/09/05 11:55:22;;;;;;;3.75;2.90;;;19.90;68.60;;;;;;5055789;28;20071;-36
2021/09/05 11:58:06;;;;;;;3.72;3.03;;;19.90;68.60;;;;;;5063959;28;20033;-35
2021/09/05 12:00:41;;;;;;;3.67;2.83;;;19.90;68.60;;;;;;5063987;28;20137;-36
2021/09/05 12:03:14;;;;;;;3.45;3.08;;;19.90;68.70;;;;;;5044040;28;20375;-35
2021/09/05 12:05:40;;;;;;;3.63;3.20;;;19.90;68.70;;;;;;5043732;28;20049;-35
2021/09/05 12:08:07;;;;;;;3.20;2.90;;;19.90;68.70;;;;;;5026446;28;20021;-35
2021/09/05 12:10:34;;;;;;;3.45;2.85;;;19.90;68.70;;;;;;5025539;28;20037;-35
2021/09/05 12:13:07;;;;;;;3.28;2.97;;;19.90;68.80;;;;;;5044088;28;20032;-35
2021/09/05 12:15:37;;;;;;;2.92;2.70;;;19.90;68.80;;;;;;5051212;28;20082;-35
2021/09/05 12:18:17;;;;;;;3.13;2.80;;;19.90;68.80;;;;;;5078986;28;20025;-36
2021/09/05 12:20:44;;;;;;;5.43;2.90;;;19.90;68.70;;;;;;5062918;28;20031;-35
2021/09/05 12:23:17;;;;;;;;;;;19.90;68.80;;;;;;5064499;28;20055;-36
2021/09/05 12:25:43;;;;;;;3.20;2.78;;;19.90;68.80;;;;;;5063155;28;19942;-36
2021/09/05 12:28:10;;;;;;;3.28;3.00;;;19.90;68.80;;;;;;5044893;28;20033;-35
2021/09/05 12:30:47;;;;;;;3.53;3.08;;;19.90;68.80;;;;;;5045783;28;20036;-35
2021/09/05 12:33:43;;;;;;;3.60;2.97;;;19.90;68.80;;;;;;5048328;28;20025;-36
2021/09/05 12:36:14;;;;;;;3.20;2.90;;;19.90;68.80;;;;;;5050762;28;20021;-35
2021/09/05 12:38:51;;;;;;;4.70;3.30;;;19.90;68.80;;;;;;5060126;28;20032;-36
2021/09/05 12:41:17;;;;;;;4.22;2.80;;;19.90;68.80;;;;;;5063243;28;20107;-36
2021/09/05 12:43:54;;;;;;;4.18;3.28;;;19.90;68.90;;;;;;5063400;28;20017;-35
2021/09/05 12:46:22;;;;;;;2.93;2.63;;;19.90;68.80;;;;;;5063161;28;20071;-35
2021/09/05 12:48:50;;;;;;;5.63;2.75;;;19.90;68.80;;;;;;5063172;28;20033;-35
2021/09/05 12:51:20;;;;;;;3.45;3.00;;;19.90;68.80;;;;;;5063177;28;20028;-35
2021/09/05 12:53:57;;;;;;;3.88;2.97;;;19.90;68.80;;;;;;5045295;28;20386;-35
2021/09/05 12:56:24;;;;;;;3.13;2.80;;;19.90;68.80;;;;;;5062790;28;20062;-39